• Join FlightAware (Why Join?)
  • Login
  • US Flag 
08:54AM EDT


 

Airport Tracker/Info


-or-


 

Live Flight TrackerFlight Track Log ✈ SWA902 ✈ 28-Apr-2013 ✈ KMDW - KPVD

Flight Track Log - Related Links

Times and Time Zones

All times are in EDT time to prevent confusion due to time zone crossing. See the SWA902 flight status page for this flight to view local times or setup timezone preferences in your user account.

Time Position Orientation Groundspeed Altitude Reporting Facility
EDT Latitude Longitude Course Direction KTS MPH feet Rate Location/Type
11:03AM 41.8000 -87.7000 90° East 175 201 2,700  Level Chicago TRACON
11:05AM 41.8014 -87.5786 89° East 202 232 5,000 840 Climbing Chicago Center
11:06AM 41.8056 -87.4792 87° East 243 280 5,000 780 Level Chicago Center
11:07AM 41.8094 -87.3797 87° East 261 300 6,600 2,760 Climbing Chicago Center
11:08AM 41.8122 -87.2772 88° East 273 314 10,700 3,840 Climbing Chicago Center
11:09AM 41.7500 -86.8533 90° East  Level FlightAware Approximate
11:09AM 41.8167 -87.1667 87° East 290 334 14,500  Level Chicago Center
11:10AM 41.8081 -87.0422 95° East 322 371 16,800 2,580 Climbing Chicago Center
11:11AM 41.8008 -86.9064 94° East 356 410 19,900 3,180 Climbing Chicago Center
11:12AM 41.7925 -86.7364 94° East 378 435 23,400 2,880 Climbing Chicago Center
11:13AM 41.7828 -86.5881 95° East 395 455 25,900 2,220 Climbing Chicago Center
11:14AM 41.7747 -86.4375 94° East 405 466 28,000 1,740 Climbing Chicago Center
11:15AM 41.7764 -86.2794 89° East 429 494 29,600 1,560 Climbing Chicago Center
11:16AM 41.8031 -86.1175 77° East 444 511 31,300 2,040 Climbing Chicago Center
11:17AM 41.8306 -85.9564 77° East 442 509 33,900 1,980 Climbing Chicago Center
11:18AM 41.8578 -85.7972 77° East 436 502 35,400 1,380 Climbing Chicago Center
11:19AM 41.8850 -85.6350 77° East 441 507 36,800 1,260 Climbing Chicago Center
11:20AM 41.9119 -85.4703 78° East 445 512 38,000 960 Climbing Chicago Center
11:21AM 41.9497 -85.2658 76° East 459 528 39,000 420 Climbing Cleveland Center
11:22AM 41.9522 -85.0986 89° East 459 528 39,000  Level Cleveland Center
11:23AM 41.9528 -84.9253 90° East 459 528 39,000  Level Cleveland Center
11:24AM 41.9528 -84.7578 90° East 459 528 39,000  Level Cleveland Center
11:25AM 41.9608 -84.5906 86° East 459 528 39,000  Level Cleveland Center
11:26AM 41.9792 -84.4186 82° East 459 528 39,000  Level Cleveland Center
11:27AM 41.9936 -84.2350 84° East 459 528 39,000  Level Cleveland Center
11:28AM 42.0114 -84.0656 82° East 454 522 39,000  Level Cleveland Center
11:29AM 42.0267 -83.8986 83° East 454 522 39,000  Level Cleveland Center
11:30AM 42.0419 -83.7286 83° East 454 522 39,000  Level Cleveland Center
11:31AM 42.0611 -83.5592 81° East 454 522 39,000  Level Cleveland Center
11:32AM 42.0778 -83.3892 82° East 459 528 39,000  Level Cleveland Center
11:33AM 42.0922 -83.2219 83° East 459 528 39,000  Level Cleveland Center
11:34AM 42.1064 -83.0544 83° East 459 528 39,000  Level Cleveland Center
11:35AM 42.1225 -82.8817 83° East 459 528 39,000  Level Cleveland Center
11:36AM 42.1381 -82.7142 83° East 459 528 39,000  Level Cleveland Center
11:37AM 42.1517 -82.5492 84° East 459 528 39,000  Level Cleveland Center
11:38AM 42.1669 -82.3789 83° East 454 522 39,000  Level Cleveland Center
11:39AM 42.1797 -82.2083 84° East 454 522 39,000  Level Cleveland Center
11:40AM 42.1944 -82.0517 83° East 462 532 39,000  Level Cleveland Center
11:41AM 42.2069 -81.8669 85° East 462 532 39,000  Level Cleveland Center
11:42AM 42.2233 -81.6964 83° East 462 532 39,000  Level Cleveland Center
11:43AM 42.2353 -81.5253 85° East 462 532 39,000  Level Cleveland Center
11:44AM 42.2492 -81.3517 84° East 462 532 39,000  Level Cleveland Center
11:45AM 42.2628 -81.1781 84° East 462 532 39,000  Level Cleveland Center
11:46AM 42.2761 -81.0014 84° East 462 532 39,000  Level Cleveland Center
11:47AM 42.2892 -80.8244 84° East 467 537 39,000  Level Cleveland Center
11:48AM 42.2997 -80.6703 85° East 467 537 39,000 300 Level Cleveland Center
11:49AM 42.3122 -80.4906 85° East 467 537 39,700 960 Climbing Cleveland Center
11:50AM 42.3222 -80.3136 86° East 467 537 41,000 600 Climbing Cleveland Center
11:51AM 42.3344 -80.1422 84° East 462 532 41,000  Level Cleveland Center
11:52AM 42.3439 -79.9681 86° East 462 532 41,000  Level Cleveland Center
11:53AM 42.3553 -79.7964 85° East 462 532 41,000  Level Cleveland Center
11:54AM 42.3667 -79.6192 85° East 462 532 41,000  Level Cleveland Center
11:55AM 42.3775 -79.4506 85° East 462 532 41,000  Level Cleveland Center
11:56AM 42.3861 -79.2789 86° East 462 532 41,000  Level Cleveland Center
11:57AM 42.3967 -79.1100 85° East 462 532 41,000  Level Cleveland Center
11:58AM 42.4047 -78.9411 86° East 462 532 41,000  Level Cleveland Center
11:59AM 42.4167 -78.7522 85° East 462 532 41,000  Level Cleveland Center
12:00PM 42.4261 -78.5803 86° East 462 532 41,000  Level Cleveland Center
12:01PM 42.4336 -78.4142 86° East 462 532 41,000  Level Cleveland Center
12:02PM 42.4406 -78.2394 87° East 462 532 41,000  Level Cleveland Center
12:03PM 42.4494 -78.0703 86° East 462 532 41,000  Level Cleveland Center
12:04PM 42.4561 -77.8956 87° East 462 532 41,000  Level Cleveland Center
12:05PM 42.4650 -77.7458 85° East 457 526 41,000  Level Cleveland Center
12:06PM 42.4711 -77.5739 87° East 457 526 41,000  Level Cleveland Center
12:08PM 42.4853 -77.2217 87° East 475 547 41,000  Level Boston Center
12:09PM 42.4925 -77.0475 87° East 469 540 41,000  Level Boston Center
12:10PM 42.4969 -76.8789 88° East 459 528 41,000  Level Boston Center
12:11PM 42.5036 -76.7100 87° East 453 521 41,000  Level Boston Center
12:12PM 42.5097 -76.5414 87° East 448 516 41,000  Level Boston Center
12:13PM 42.5031 -76.3747 93° East 448 516 41,000  Level Boston Center
12:14PM 42.4928 -76.1883 94° East 448 516 41,000  Level Boston Center
12:15PM 42.4817 -76.0131 95° East 448 516 41,000  Level Boston Center
12:16PM 42.4703 -75.8433 95° East 448 516 41,000  Level Boston Center
12:17PM 42.4589 -75.6653 95° East 453 521 41,000  Level Boston Center
12:18PM 42.4469 -75.4958 95° East 453 521 41,000  Level Boston Center
12:19PM 42.4367 -75.3267 95° East 458 527 41,000 -840 Level Boston Center
12:20PM 42.4244 -75.1489 95° East 463 533 39,400 -2,100 Descending Boston Center
12:21PM 42.4136 -74.9767 95° East 463 533 36,900 -2,640 Descending Boston Center
12:22PM 42.3989 -74.7906 96° East 476 548 34,200 -2,520 Descending Boston Center
12:23PM 42.3839 -74.6044 96° East 492 566 31,900 -2,340 Descending Boston Center
12:24PM 42.3747 -74.4242 94° East 492 566 29,600 -1,500 Descending Boston Center
12:25PM 42.3608 -74.2581 96° East 470 541 28,900 -900 Descending Boston Center
12:26PM 42.3469 -74.0806 96° East 464 534 27,900 -1,020 Descending Boston Center
12:27PM 42.3347 -73.9117 96° East 464 534 26,900 -1,020 Descending Boston Center
12:28PM 42.3200 -73.7514 97° East 449 517 25,900 -1,020 Descending Boston Center
12:29PM 42.3111 -73.5967 94° East 454 522 24,900 -1,020 Descending Boston Center
12:30PM 42.2981 -73.4394 96° East 438 504 23,900 -1,020 Descending Boston Center
12:31PM 42.2806 -73.2764 98° East 418 481 22,900 -1,020 Descending Boston Center
12:32PM 42.2544 -73.1272 103° East 410 472 21,900 -1,020 Descending Boston Center
12:33PM 42.1781 -73.0117 132° Southeast 397 457 20,900 -1,020 Descending Boston Center
12:34PM 42.0994 -72.9072 135° Southeast 397 457 19,900 -1,020 Descending Boston Center
12:35PM 42.0247 -72.8061 135° Southeast 396 456 18,900 -960 Descending Boston Center
12:36PM 41.9561 -72.7108 134° Southeast 396 456 18,000 -480 Descending Boston Center
12:37PM 41.8897 -72.5964 128° Southeast 390 449 18,000 -720 Level Boston Center
12:38PM 41.8231 -72.4764 127° Southeast 380 437 16,600 -1,500 Descending Boston Center
12:39PM 41.8044 -72.4400 124° Southeast 377 434 16,100 -2,040 Descending Boston Center
12:39PM 41.7669 -72.3761 128° Southeast 374 430 14,600 -2,160 Descending Boston Center
12:40PM 41.7292 -72.3122 128° Southeast 364 419 13,500 -1,920 Descending Boston Center
12:40PM 41.7106 -72.2706 121° Southeast 366 421 12,700 -2,220 Descending Boston Center
12:41PM 41.6686 -72.2039 130° Southeast 351 404 11,300 -1,620 Descending Boston Center
12:41PM 41.6456 -72.1539 122° Southeast 361 415 11,100 -300 Descending Boston Center
12:42PM 41.6100 -72.0986 131° Southeast 327 376 11,000 -120 Descending Boston Center
12:42PM 41.5975 -72.0708 121° Southeast 335 386 11,000 -900 Level Boston Center
12:43PM 41.5533 -71.9906 126° Southeast 306 352 10,000 -1,500 Descending Boston Center
12:44PM 41.5258 -71.8800 108° East 282 325 8,200 -1,560 Descending Boston Center
12:45PM 41.5442 -71.7883 75° East 285 328 6,900 -1,500 Descending Boston Center
12:46PM 41.5789 -71.6825 66° East 274 315 5,200 -900 Descending Boston Center
12:47PM 41.6389 -71.6289 34° Northeast 268 308 5,000 -60 Descending Boston Center
12:48PM 41.7011 -71.5836 29° Northeast 264 304 5,100  Climbing Boston Center
12:49PM 41.7653 -71.5300 32° Northeast 272 313 5,000 -540 Descending Boston Center
12:50PM 41.8211 -71.4847 31° Northeast 244 281 4,100 -960 Descending Boston Center
12:51PM 41.8769 -71.4308 36° Northeast 244 281 3,100 -540 Descending Boston Center
12:52PM 41.8492 -71.3617 118° Southeast 232 267 3,100 -300 Level Boston Center
12:53PM 41.7992 -71.3653 183° South 172 198 2,600 -1,020 Descending Boston Center
12:54PM 41.7683 -71.3936 214° Southwest 142 163 1,100 -1,200 Descending Boston Center
12:55PM 41.7456 -71.4106 209° Southwest 130 150 500 -780 Descending Boston Center